Time;durP1;ratioP1;P1;durP2;ratioP2;P2;SDS_P1;SDS_P2;PMS_P1;PMS_P2;Temp;Humidity;BMP_temperature;BMP_pressure;BME280_temperature;BME280_humidity;BME280_pressure;Samples;Min_cycle;Max_cycle;Signal;HPM_P1;HPM_P2
2021/10/26 00:02:24;;;;;;;;;;;;;;;;;;5259244;23;19935;-75
2021/10/26 00:04:52;;;;;;;;;;;8.80;99.90;;;;;;4921737;29;19927;-75
2021/10/26 00:07:19;;;;;;;;;;;8.70;99.90;;;;;;4925083;29;20355;-75
2021/10/26 00:09:46;;;;;;;;;;;8.70;99.90;;;;;;4940473;29;19937;-75
2021/10/26 00:12:13;;;;;;;;;;;8.70;99.90;;;;;;4940463;29;19931;-75
2021/10/26 00:14:46;;;;;;;;;;;8.70;99.90;;;;;;4993521;23;19910;-77
2021/10/26 00:17:13;;;;;;;;;;;8.70;99.90;;;;;;5118552;23;19993;-77
2021/10/26 00:19:40;;;;;;;;;;;8.70;99.90;;;;;;4940472;29;19938;-77
2021/10/26 00:22:07;;;;;;;;;;;;;;;;;;4940317;29;19949;-77
2021/10/26 00:24:35;;;;;;;;;;;8.70;99.90;;;;;;4940357;29;19927;-77
2021/10/26 00:27:02;;;;;;;;;;;8.70;99.90;;;;;;4940116;29;19926;-77
2021/10/26 00:29:29;;;;;;;;;;;8.70;99.90;;;;;;4940121;29;19954;-77
2021/10/26 00:31:56;;;;;;;;;;;8.60;99.90;;;;;;4940175;29;20025;-77
2021/10/26 00:34:23;;;;;;;;;;;8.70;99.90;;;;;;4940006;29;20025;-77
2021/10/26 00:36:50;;;;;;;;;;;8.70;99.90;;;;;;4940030;29;19937;-78
2021/10/26 00:39:17;;;;;;;;;;;8.70;99.90;;;;;;4939973;29;19927;-78
2021/10/26 00:41:46;;;;;;;;;;;8.70;99.90;;;;;;4939981;29;19927;-78
2021/10/26 00:44:13;;;;;;;;;;;8.60;99.90;;;;;;4940000;29;19938;-78
2021/10/26 00:46:40;;;;;;;;;;;8.60;99.90;;;;;;4939946;29;19927;-78
2021/10/26 00:49:09;;;;;;;;;;;8.60;99.90;;;;;;4940085;29;20030;-79
2021/10/26 00:51:36;;;;;;;;;;;8.60;99.90;;;;;;4939833;29;19978;-77
2021/10/26 00:54:04;;;;;;;;;;;8.60;99.90;;;;;;4939969;29;19927;-78
2021/10/26 00:56:32;;;;;;;;;;;8.60;99.90;;;;;;4939784;29;19926;-77
2021/10/26 00:59:02;;;;;;;;;;;8.70;99.90;;;;;;4938937;29;20194;-77
2021/10/26 01:01:29;;;;;;;;;;;8.70;99.90;;;;;;4939683;29;19927;-77
2021/10/26 01:03:56;;;;;;;;;;;8.70;99.90;;;;;;4939611;29;19926;-77
2021/10/26 01:06:23;;;;;;;;;;;8.70;99.90;;;;;;4939560;29;19927;-77
2021/10/26 01:08:50;;;;;;;;;;;8.70;99.90;;;;;;4939661;29;19992;-78
2021/10/26 01:11:17;;;;;;;;;;;8.70;99.90;;;;;;4939150;29;19927;-77
2021/10/26 01:13:44;;;;;;;;;;;8.80;99.90;;;;;;4938808;29;19948;-77
2021/10/26 01:16:12;;;;;;;;;;;8.70;99.90;;;;;;4939243;29;19927;-77
2021/10/26 01:18:39;;;;;;;;;;;8.70;99.90;;;;;;4939245;29;19938;-77
2021/10/26 01:21:07;;;;;;;;;;;8.70;99.90;;;;;;4939441;29;19926;-77
2021/10/26 01:23:34;;;;;;;;;;;8.80;99.90;;;;;;4939188;29;19927;-77
2021/10/26 01:26:01;;;;;;;;;;;8.80;99.90;;;;;;4939174;29;19926;-77
2021/10/26 01:28:28;;;;;;;;;;;8.70;99.90;;;;;;4939088;29;19938;-77
2021/10/26 01:31:24;;;;;;;;;;;8.80;99.90;;;;;;4948256;28;19911;-82
2021/10/26 01:33:51;;;;;;;;;;;8.80;99.90;;;;;;4947595;29;19927;-75
2021/10/26 01:36:21;;;;;;;;;;;8.80;99.90;;;;;;4939254;29;19927;-75
2021/10/26 01:38:48;;;;;;;;;;;8.80;99.90;;;;;;4939078;29;19934;-75
2021/10/26 01:41:15;;;;;;;;;;;8.80;99.90;;;;;;4938975;29;19927;-75
2021/10/26 01:43:42;;;;;;;;;;;8.80;99.90;;;;;;4938736;29;20374;-75
2021/10/26 01:46:08;;;;;;;;;;;8.90;99.90;;;;;;4938629;29;19927;-76
2021/10/26 01:48:35;;;;;;;;;;;8.90;99.90;;;;;;4938278;29;19927;-75
2021/10/26 01:51:03;;;;;;;;;;;8.90;99.90;;;;;;4938810;29;19934;-75
2021/10/26 01:53:31;;;;;;;;;;;8.90;99.90;;;;;;4938592;29;19986;-75
2021/10/26 01:55:58;;;;;;;;;;;8.90;99.90;;;;;;4938652;29;19941;-75
2021/10/26 01:58:25;;;;;;;;;;;9.00;99.90;;;;;;4938550;29;19937;-76
2021/10/26 02:00:52;;;;;;;;;;;9.00;99.90;;;;;;4939027;29;19937;-77
2021/10/26 02:03:19;;;;;;;;;;;9.00;99.90;;;;;;4938704;29;19927;-77
2021/10/26 02:05:46;;;;;;;;;;;9.00;99.90;;;;;;4938447;29;19971;-76
2021/10/26 02:08:13;;;;;;;;;;;9.00;99.90;;;;;;4938553;29;19931;-75
2021/10/26 02:10:41;;;;;;;;;;;9.00;99.90;;;;;;4938344;29;19927;-76
2021/10/26 02:13:08;;;;;;;;;;;9.00;99.90;;;;;;4938457;29;19933;-77
2021/10/26 02:15:35;;;;;;;;;;;9.10;99.90;;;;;;4938386;29;19959;-77
2021/10/26 02:18:02;;;;;;;;;;;9.10;99.90;;;;;;4938004;29;19938;-77
2021/10/26 02:20:29;;;;;;;;;;;9.10;99.90;;;;;;4938297;29;19927;-77
2021/10/26 02:22:56;;;;;;;;;;;9.10;99.90;;;;;;4937951;29;19926;-77
2021/10/26 02:25:23;;;;;;;;;;;9.10;99.90;;;;;;4938159;29;19927;-76
2021/10/26 02:27:51;;;;;;;;;;;9.10;99.90;;;;;;4938197;29;19941;-76
2021/10/26 02:30:18;;;;;;;;;;;9.10;99.90;;;;;;4938338;29;19927;-76
2021/10/26 02:32:45;;;;;;;;;;;9.10;99.90;;;;;;4938260;29;19945;-75
2021/10/26 02:35:12;;;;;;;;;;;9.20;99.90;;;;;;4938158;29;19937;-75
2021/10/26 02:37:39;;;;;;;;;;;9.20;99.90;;;;;;4938400;29;19927;-76
2021/10/26 02:40:06;;;;;;;;;;;9.20;99.90;;;;;;4938038;29;19937;-76
2021/10/26 02:42:33;;;;;;;;;;;9.20;99.90;;;;;;4938136;29;20274;-76
2021/10/26 02:45:01;;;;;;;;;;;9.20;99.90;;;;;;4937761;29;20340;-76
2021/10/26 02:47:29;;;;;;;;;;;9.30;99.90;;;;;;4938241;29;19938;-76
2021/10/26 02:49:56;;;;;;;;;;;9.30;99.90;;;;;;4937950;29;19981;-76
2021/10/26 02:52:22;;;;;;;;;;;9.30;99.90;;;;;;4937906;29;19927;-76
2021/10/26 02:54:49;;;;;;;;;;;9.30;99.90;;;;;;4937824;29;19927;-76
2021/10/26 02:57:16;;;;;;;;;;;9.30;99.90;;;;;;4937844;29;20344;-76
2021/10/26 02:59:43;;;;;;;;;;;9.40;99.90;;;;;;4937750;29;20347;-76
2021/10/26 03:02:11;;;;;;;;;;;9.40;99.90;;;;;;4937777;29;19927;-76
2021/10/26 03:04:38;;;;;;;;;;;9.40;99.90;;;;;;4937984;29;19937;-76
2021/10/26 03:07:05;;;;;;;;;;;9.40;99.90;;;;;;4938062;29;20270;-76
2021/10/26 03:09:32;;;;;;;;;;;9.40;99.90;;;;;;4937600;29;19930;-76
2021/10/26 03:11:58;;;;;;;;;;;9.40;99.90;;;;;;4937589;29;19927;-76
2021/10/26 03:14:25;;;;;;;;;;;9.40;99.90;;;;;;4937729;29;19927;-76
2021/10/26 03:16:52;;;;;;;;;;;9.40;99.90;;;;;;4937673;29;19931;-76
2021/10/26 03:19:20;;;;;;;;;;;9.40;99.90;;;;;;4937997;29;19959;-76
2021/10/26 03:21:47;;;;;;;;;;;9.40;99.90;;;;;;4937672;29;20352;-76
2021/10/26 03:24:14;;;;;;;;;;;9.40;99.90;;;;;;4937664;29;19927;-76
2021/10/26 03:26:41;;;;;;;;;;;9.40;99.90;;;;;;4937868;29;19927;-76
2021/10/26 03:29:08;;;;;;;;;;;;;;;;;;4937926;29;19927;-76
2021/10/26 03:31:35;;;;;;;;;;;9.40;99.90;;;;;;4937723;29;20281;-76
2021/10/26 03:34:02;;;;;;;;;;;9.40;99.90;;;;;;4937537;29;19927;-76
2021/10/26 03:36:29;;;;;;;;;;;;;;;;;;4940046;29;19927;-76
2021/10/26 03:38:57;;;;;;;;;;;9.40;99.90;;;;;;4941351;29;19926;-76
2021/10/26 03:41:24;;;;;;;;;;;9.40;99.90;;;;;;4941294;29;19938;-76
2021/10/26 03:43:51;;;;;;;;;;;9.40;99.90;;;;;;4941307;29;19953;-76
2021/10/26 03:46:18;;;;;;;;;;;9.40;99.90;;;;;;4941069;29;19986;-76
2021/10/26 03:48:45;;;;;;;;;;;9.40;99.90;;;;;;4941156;29;19927;-76
2021/10/26 03:51:12;;;;;;;;;;;9.40;99.90;;;;;;4940916;29;20355;-76
2021/10/26 03:53:39;;;;;;;;;;;9.50;99.90;;;;;;4940904;29;19927;-76
2021/10/26 03:56:07;;;;;;;;;;;9.50;99.90;;;;;;4941105;29;20271;-76
2021/10/26 03:58:36;;;;;;;;;;;9.50;99.90;;;;;;4940757;29;20424;-76
2021/10/26 04:01:03;;;;;;;;;;;9.50;99.90;;;;;;4940791;29;20030;-78
2021/10/26 04:03:30;;;;;;;;;;;9.50;99.90;;;;;;4940850;29;19949;-77
2021/10/26 04:06:01;;;;;;;;;;;9.50;99.90;;;;;;4940690;29;20256;-77
2021/10/26 04:08:31;;;;;;;;;;;9.50;99.90;;;;;;4940784;29;19937;-77
2021/10/26 04:11:00;;;;;;;;;;;9.50;99.90;;;;;;4940636;29;20360;-76
2021/10/26 04:13:29;;;;;;;;;;;9.50;99.90;;;;;;4940521;29;19937;-77
2021/10/26 04:15:56;;;;;;;;;;;9.50;99.90;;;;;;4940491;29;20021;-77
2021/10/26 04:18:23;;;;;;;;;;;9.50;99.90;;;;;;4940679;29;19931;-77
2021/10/26 04:20:50;;;;;;;;;;;9.50;99.90;;;;;;4940390;29;19937;-77
2021/10/26 04:23:17;;;;;;;;;;;9.50;99.90;;;;;;4940281;29;19927;-77
2021/10/26 04:25:44;;;;;;;;;;;9.50;99.90;;;;;;4940398;29;19927;-77
2021/10/26 04:28:10;;;;;;;;;;;9.60;99.90;;;;;;4940319;29;19933;-77
2021/10/26 04:30:38;;;;;;;;;;;;;;;;;;4940351;29;19927;-76
2021/10/26 04:33:06;;;;;;;;;;;9.50;99.90;;;;;;4940218;29;19927;-77
2021/10/26 04:35:33;;;;;;;;;;;9.60;99.90;;;;;;4940122;29;19927;-76
2021/10/26 04:38:00;;;;;;;;;;;9.50;99.90;;;;;;4940163;29;19934;-77
2021/10/26 04:40:27;;;;;;;;;;;;;;;;;;4940040;29;19937;-77
2021/10/26 04:42:54;;;;;;;;;;;9.60;99.90;;;;;;4940314;29;19970;-77
2021/10/26 04:45:22;;;;;;;;;;;9.50;99.90;;;;;;4940109;29;19937;-77
2021/10/26 04:47:48;;;;;;;;;;;9.60;99.90;;;;;;4939773;29;19998;-77
2021/10/26 04:50:17;;;;;;;;;;;9.60;99.90;;;;;;4940212;29;19953;-75
2021/10/26 04:52:44;;;;;;;;;;;9.60;99.90;;;;;;4939913;29;19931;-76
2021/10/26 04:55:10;;;;;;;;;;;9.60;99.90;;;;;;4939898;29;20320;-76
2021/10/26 04:57:38;;;;;;;;;;;;;;;;;;4939899;29;19927;-76
2021/10/26 05:00:05;;;;;;;;;;;9.60;99.90;;;;;;4939735;29;20285;-76
2021/10/26 05:02:32;;;;;;;;;;;8.60;99.90;;;;;;4939773;29;20367;-76
2021/10/26 05:04:59;;;;;;;;;;;9.50;99.90;;;;;;4939667;29;20367;-76
2021/10/26 05:07:27;;;;;;;;;;;9.60;99.90;;;;;;4939534;29;19927;-76
2021/10/26 05:09:54;;;;;;;;;;;9.50;99.90;;;;;;4939454;29;19927;-76
2021/10/26 05:12:21;;;;;;;;;;;9.50;99.90;;;;;;4939503;29;19978;-76
2021/10/26 05:14:48;;;;;;;;;;;9.50;99.90;;;;;;4939412;29;19937;-76
2021/10/26 05:17:19;;;;;;;;;;;9.50;99.90;;;;;;4939370;29;19927;-76
2021/10/26 05:19:47;;;;;;;;;;;9.50;99.90;;;;;;4939375;29;19934;-76
2021/10/26 05:22:14;;;;;;;;;;;9.50;99.90;;;;;;4939282;29;19938;-76
2021/10/26 05:24:42;;;;;;;;;;;9.50;99.90;;;;;;4939362;29;19926;-76
2021/10/26 05:27:09;;;;;;;;;;;9.40;99.90;;;;;;4939229;29;19927;-76
2021/10/26 05:29:35;;;;;;;;;;;9.50;99.90;;;;;;4939272;29;20366;-76
2021/10/26 05:34:49;;;;;;;;;;;;;;;;;;4967053;23;19933;-78
2021/10/26 05:37:16;;;;;;;;;;;9.40;99.90;;;;;;4958152;29;20274;-78
2021/10/26 05:39:44;;;;;;;;;;;9.40;99.90;;;;;;4958100;29;19927;-78
2021/10/26 05:42:11;;;;;;;;;;;9.40;99.90;;;;;;4958081;29;19926;-78
2021/10/26 05:44:38;;;;;;;;;;;;;;;;;;4958095;29;20405;-78
2021/10/26 05:47:05;;;;;;;;;;;9.50;99.90;;;;;;4958195;28;19926;-78
2021/10/26 05:49:32;;;;;;;;;;;9.50;99.90;;;;;;4957960;29;19936;-78
2021/10/26 05:51:59;;;;;;;;;;;9.50;99.90;;;;;;4957882;29;20051;-78
2021/10/26 05:54:26;;;;;;;;;;;9.50;99.90;;;;;;4957808;28;19936;-78
2021/10/26 05:56:54;;;;;;;;;;;9.50;99.90;;;;;;4957923;28;19933;-78
2021/10/26 05:59:21;;;;;;;;;;;9.50;99.90;;;;;;4957177;28;20348;-78
2021/10/26 06:01:47;;;;;;;;;;;9.50;99.90;;;;;;4957638;29;19926;-78
2021/10/26 06:04:14;;;;;;;;;;;9.50;99.90;;;;;;4957939;29;19926;-79
2021/10/26 06:06:41;;;;;;;;;;;9.60;99.90;;;;;;4957738;28;19934;-78
2021/10/26 06:09:08;;;;;;;;;;;;;;;;;;4957625;29;20282;-78
2021/10/26 06:11:35;;;;;;;;;;;9.60;99.90;;;;;;4957541;28;19927;-78
2021/10/26 06:14:04;;;;;;;;;;;9.50;99.90;;;;;;4957584;29;19927;-78
2021/10/26 06:16:31;;;;;;;;;;;9.60;99.90;;;;;;4957577;29;19981;-78
2021/10/26 06:18:58;;;;;;;;;;;9.60;99.90;;;;;;4957290;29;19930;-78
2021/10/26 06:21:25;;;;;;;;;;;9.50;99.90;;;;;;4957442;29;19926;-78
2021/10/26 06:23:53;;;;;;;;;;;9.60;99.90;;;;;;4957510;29;19926;-78
2021/10/26 06:26:20;;;;;;;;;;;9.60;99.90;;;;;;4957540;28;19927;-78
2021/10/26 06:28:46;;;;;;;;;;;9.60;99.90;;;;;;4957184;28;20354;-78
2021/10/26 06:31:15;;;;;;;;;;;9.60;99.90;;;;;;4957242;28;19941;-78
2021/10/26 06:33:41;;;;;;;;;;;9.50;99.90;;;;;;4957242;29;19926;-78
2021/10/26 06:36:08;;;;;;;;;;;9.60;99.90;;;;;;4957262;29;20271;-78
2021/10/26 06:38:35;;;;;;;;;;;9.60;99.90;;;;;;4957229;28;20033;-75
2021/10/26 06:41:03;;;;;;;;;;;9.60;99.90;;;;;;4957354;29;19926;-75
2021/10/26 06:43:30;;;;;;;;;;;9.60;99.90;;;;;;4957333;29;19926;-75
2021/10/26 06:45:57;;;;;;;;;;;9.60;99.90;;;;;;4957785;28;19930;-76
2021/10/26 06:48:25;;;;;;;;;;;9.60;99.90;;;;;;4957356;29;19933;-76
2021/10/26 06:50:52;;;;;;;;;;;9.60;99.90;;;;;;4957120;29;19926;-76
2021/10/26 06:53:21;;;;;;;;;;;9.60;99.90;;;;;;4957059;28;19972;-76
2021/10/26 06:55:48;;;;;;;;;;;9.60;99.90;;;;;;4957308;29;20040;-76
2021/10/26 06:58:15;;;;;;;;;;;9.60;99.90;;;;;;4957395;29;20025;-76
2021/10/26 07:00:43;;;;;;;;;;;9.60;99.90;;;;;;4957368;29;19926;-76
2021/10/26 07:03:09;;;;;;;;;;;9.70;99.90;;;;;;4957194;29;19937;-76
2021/10/26 07:05:39;;;;;;;;;;;9.60;99.90;;;;;;4956975;29;19927;-76
2021/10/26 07:08:06;;;;;;;;;;;9.70;99.90;;;;;;4957160;29;19993;-76
2021/10/26 07:10:32;;;;;;;;;;;9.70;99.90;;;;;;4959861;28;19927;-75
2021/10/26 07:13:00;;;;;;;;;;;9.80;99.90;;;;;;4961008;28;19927;-76
2021/10/26 07:15:29;;;;;;;;;;;9.80;99.90;;;;;;4960788;28;19944;-75
2021/10/26 07:17:56;;;;;;;;;;;9.80;99.90;;;;;;4960807;28;19926;-76
2021/10/26 07:20:23;;;;;;;;;;;9.90;99.90;;;;;;4960705;29;19936;-76
2021/10/26 07:22:54;;;;;;;;;;;9.90;99.90;;;;;;4960690;28;20370;-75
2021/10/26 07:25:21;;;;;;;;;;;9.90;99.90;;;;;;4960722;28;19935;-76
2021/10/26 07:27:53;;;;;;;;;;;9.90;99.90;;;;;;4960690;28;19940;-76
2021/10/26 07:30:20;;;;;;;;;;;9.90;99.90;;;;;;4953037;29;19926;-76
2021/10/26 07:32:46;;;;;;;;;;;9.90;99.90;;;;;;4960338;29;19926;-75
2021/10/26 07:35:13;;;;;;;;;;;10.00;99.90;;;;;;4960594;28;19941;-76
2021/10/26 07:37:43;;;;;;;;;;;10.00;99.90;;;;;;4960664;28;19972;-76
2021/10/26 07:40:11;;;;;;;;;;;10.10;99.90;;;;;;4960791;29;19926;-77
2021/10/26 07:42:38;;;;;;;;;;;10.10;99.90;;;;;;4960626;29;19927;-75
2021/10/26 07:45:06;;;;;;;;;;;10.10;99.90;;;;;;4960454;29;19926;-76
2021/10/26 07:47:34;;;;;;;;;;;10.20;99.90;;;;;;4960505;28;20408;-75
2021/10/26 07:50:01;;;;;;;;;;;10.20;99.90;;;;;;4960497;29;19927;-76
2021/10/26 07:52:28;;;;;;;;;;;10.30;99.90;;;;;;4960294;29;19949;-76
2021/10/26 07:54:55;;;;;;;;;;;10.30;99.90;;;;;;4960168;28;20427;-76
2021/10/26 07:57:23;;;;;;;;;;;10.30;99.90;;;;;;4960446;28;19927;-77
2021/10/26 07:59:50;;;;;;;;;;;10.40;99.90;;;;;;4960264;28;20017;-76
2021/10/26 08:02:17;;;;;;;;;;;10.40;99.90;;;;;;4959988;28;19937;-76
2021/10/26 08:04:44;;;;;;;;;;;10.40;99.90;;;;;;4960053;29;19956;-76
2021/10/26 08:07:11;;;;;;;;;;;10.40;99.90;;;;;;4960022;29;20248;-76
2021/10/26 08:09:38;;;;;;;;;;;10.40;99.90;;;;;;4959892;29;20326;-76
2021/10/26 08:12:05;;;;;;;;;;;10.40;99.90;;;;;;4960013;28;20002;-76
2021/10/26 08:14:32;;;;;;;;;;;;;;;;;;4959957;29;19937;-76
2021/10/26 08:17:01;;;;;;;;;;;10.30;99.90;;;;;;4959837;29;19937;-76
2021/10/26 08:19:28;;;;;;;;;;;10.50;99.90;;;;;;4959670;28;19949;-76
2021/10/26 08:21:55;;;;;;;;;;;10.50;99.90;;;;;;4959139;28;19973;-76
2021/10/26 08:24:23;;;;;;;;;;;10.50;99.90;;;;;;4959641;29;20369;-76
2021/10/26 08:26:57;;;;;;;;;;;10.50;99.90;;;;;;4959603;29;19926;-76
2021/10/26 08:29:35;;;;;;;;;;;10.50;99.90;;;;;;4959883;28;20033;-77
2021/10/26 08:32:16;;;;;;;;;;;10.50;99.90;;;;;;4959559;28;19937;-78
2021/10/26 08:34:50;;;;;;;;;;;10.60;99.90;;;;;;4959671;29;19926;-76
2021/10/26 08:37:17;;;;;;;;;;;10.60;99.90;;;;;;4959515;28;20426;-75
2021/10/26 08:39:44;;;;;;;;;;;10.60;99.90;;;;;;4959419;29;19927;-75
2021/10/26 08:42:11;;;;;;;;;;;10.60;99.90;;;;;;4959350;28;20252;-75
2021/10/26 08:44:38;;;;;;;;;;;10.60;99.90;;;;;;4959410;29;19941;-76
2021/10/26 08:47:07;;;;;;;;;;;10.60;99.90;;;;;;4959558;29;19926;-76
2021/10/26 08:49:34;;;;;;;;;;;10.60;99.90;;;;;;4959309;28;19933;-76
2021/10/26 08:52:01;;;;;;;;;;;10.60;99.90;;;;;;4959141;28;19927;-77
2021/10/26 08:54:28;;;;;;;;;;;10.70;99.90;;;;;;4959118;28;19935;-77
2021/10/26 08:56:55;;;;;;;;;;;10.70;99.90;;;;;;4960137;29;19993;-76
2021/10/26 08:59:22;;;;;;;;;;;10.70;99.90;;;;;;4965951;28;19927;-79
2021/10/26 09:01:50;;;;;;;;;;;10.80;99.90;;;;;;4965465;29;19994;-82
2021/10/26 09:04:18;;;;;;;;;;;10.80;99.90;;;;;;4964253;29;19933;-78
2021/10/26 09:06:46;;;;;;;;;;;10.80;99.90;;;;;;4959051;29;19953;-80
2021/10/26 09:09:16;;;;;;;;;;;10.80;99.90;;;;;;4964276;29;19934;-77
2021/10/26 09:16:40;;;;;;;;;;;10.80;99.90;;;;;;4958781;29;19938;-77
2021/10/26 09:17:21;;;;;;;;;;;10.90;99.90;;;;;;4958609;29;20259;-77
2021/10/26 09:19:49;;;;;;;;;;;10.90;99.90;;;;;;4958693;29;20344;-77
2021/10/26 09:22:16;;;;;;;;;;;10.90;99.90;;;;;;4958641;29;19938;-77
2021/10/26 09:24:53;;;;;;;;;;;10.90;99.90;;;;;;4958617;28;19927;-77
2021/10/26 09:27:21;;;;;;;;;;;11.00;99.90;;;;;;4958508;29;19927;-77
2021/10/26 09:29:48;;;;;;;;;;;11.00;99.90;;;;;;4958356;29;19933;-77
2021/10/26 09:32:16;;;;;;;;;;;11.00;99.90;;;;;;4957916;28;19989;-78
2021/10/26 09:34:44;;;;;;;;;;;11.00;99.90;;;;;;4957395;29;19926;-77
2021/10/26 09:37:13;;;;;;;;;;;11.00;99.90;;;;;;4958281;28;19938;-77
2021/10/26 09:39:40;;;;;;;;;;;;;;;;;;4958338;29;19926;-77
2021/10/26 09:42:10;;;;;;;;;;;11.10;99.90;;;;;;4958214;29;19927;-77
2021/10/26 09:44:38;;;;;;;;;;;;;;;;;;4958251;28;19927;-77
2021/10/26 09:47:05;;;;;;;;;;;11.20;99.90;;;;;;4958244;29;19934;-77
2021/10/26 09:49:34;;;;;;;;;;;11.20;99.90;;;;;;4958244;29;19926;-78
2021/10/26 09:52:07;;;;;;;;;;;11.30;99.90;;;;;;4958086;29;19926;-77
2021/10/26 09:54:37;;;;;;;;;;;11.30;99.90;;;;;;4957994;28;19966;-77
2021/10/26 09:57:05;;;;;;;;;;;11.30;99.90;;;;;;4957707;29;20357;-78
2021/10/26 09:59:32;;;;;;;;;;;11.40;99.90;;;;;;4957731;28;19989;-77
2021/10/26 10:01:58;;;;;;;;;;;11.40;99.90;;;;;;4957914;28;20274;-80
2021/10/26 10:04:26;;;;;;;;;;;11.50;99.90;;;;;;4964658;28;19926;-76
2021/10/26 10:06:53;;;;;;;;;;;11.60;99.90;;;;;;4960654;29;19926;-77
2021/10/26 10:09:20;;;;;;;;;;;11.60;99.90;;;;;;4958538;28;19926;-78
2021/10/26 10:12:04;;;;;;;;;;;11.60;99.90;;;;;;4962195;28;19926;-78
2021/10/26 10:14:31;;;;;;;;;;;11.60;99.90;;;;;;4957792;29;19927;-85
2021/10/26 10:16:57;;;;;;;;;;;11.70;99.90;;;;;;4957393;29;19930;-78
2021/10/26 10:19:25;;;;;;;;;;;11.70;99.90;;;;;;4957505;29;19926;-79
2021/10/26 10:21:51;;;;;;;;;;;11.80;99.90;;;;;;4957581;29;19938;-79
2021/10/26 10:24:18;;;;;;;;;;;11.80;99.90;;;;;;4957417;28;19937;-79
2021/10/26 10:26:48;;;;;;;;;;;11.90;99.90;;;;;;4957219;28;19981;-79
2021/10/26 10:29:17;;;;;;;;;;;12.00;99.90;;;;;;4957522;29;19926;-79
2021/10/26 10:31:44;;;;;;;;;;;12.00;99.90;;;;;;4957302;28;20009;-79
2021/10/26 10:34:11;;;;;;;;;;;12.10;99.90;;;;;;4957081;29;19933;-79
2021/10/26 10:36:40;;;;;;;;;;;12.10;99.90;;;;;;4957148;29;19927;-79
2021/10/26 10:39:07;;;;;;;;;;;12.30;99.90;;;;;;4957210;28;20355;-80
2021/10/26 10:41:36;;;;;;;;;;;12.30;99.90;;;;;;4957205;29;19927;-78
2021/10/26 10:44:03;;;;;;;;;;;12.40;99.90;;;;;;4957061;28;20021;-79
2021/10/26 10:46:41;;;;;;;;;;;12.40;99.90;;;;;;4957247;29;19937;-79
2021/10/26 10:49:27;;;;;;;;;;;12.60;99.90;;;;;;4957261;29;20343;-79
2021/10/26 10:51:54;;;;;;;;;;;12.60;99.90;;;;;;4957170;29;20005;-79
2021/10/26 10:54:44;;;;;;;;;;;12.60;99.90;;;;;;4957043;29;19937;-81
2021/10/26 10:57:21;;;;;;;;;;;12.70;99.90;;;;;;4952475;28;20351;-78
2021/10/26 10:59:48;;;;;;;;;;;12.70;99.90;;;;;;4956923;29;20025;-79
2021/10/26 11:02:24;;;;;;;;;;;12.70;99.90;;;;;;4956878;29;19926;-80
2021/10/26 11:04:52;;;;;;;;;;;12.70;99.90;;;;;;4956960;29;20290;-79
2021/10/26 11:07:37;;;;;;;;;;;12.90;99.90;;;;;;4956976;29;19927;-80
2021/10/26 11:10:04;;;;;;;;;;;13.00;99.90;;;;;;4956949;29;20359;-81
2021/10/26 11:12:32;;;;;;;;;;;13.10;99.90;;;;;;4957090;28;19926;-79
2021/10/26 11:14:59;;;;;;;;;;;13.20;99.90;;;;;;4957036;29;20049;-79
2021/10/26 11:18:02;;;;;;;;;;;13.30;99.90;;;;;;4957149;29;19926;-81
2021/10/26 11:20:56;;;;;;;;;;;13.40;99.90;;;;;;4956818;29;19926;-79
2021/10/26 11:23:37;;;;;;;;;;;13.40;99.90;;;;;;4956848;28;19937;-81
2021/10/26 11:26:05;;;;;;;;;;;13.50;99.90;;;;;;4956951;28;20260;-79
2021/10/26 11:28:38;;;;;;;;;;;13.40;99.90;;;;;;4956762;29;19926;-80
2021/10/26 11:31:06;;;;;;;;;;;13.50;99.90;;;;;;4956702;28;19927;-80
2021/10/26 11:33:33;;;;;;;;;;;13.50;99.90;;;;;;4956520;28;19937;-79
2021/10/26 11:36:03;;;;;;;;;;;13.50;99.90;;;;;;4956740;29;19931;-78
2021/10/26 11:38:30;;;;;;;;;;;13.40;99.90;;;;;;4956742;28;19931;-80
2021/10/26 11:40:58;;;;;;;;;;;13.40;99.90;;;;;;4956719;29;19927;-79
2021/10/26 11:43:25;;;;;;;;;;;13.40;99.90;;;;;;4956506;28;20373;-78
2021/10/26 11:45:55;;;;;;;;;;;13.40;99.90;;;;;;4956698;29;19937;-79
2021/10/26 11:48:38;;;;;;;;;;;13.30;99.90;;;;;;4956568;29;19977;-80
2021/10/26 11:51:18;;;;;;;;;;;13.40;99.90;;;;;;4956633;28;20381;-79
2021/10/26 11:53:45;;;;;;;;;;;13.50;99.90;;;;;;4956467;29;19926;-79
2021/10/26 11:56:23;;;;;;;;;;;13.70;99.90;;;;;;4956867;28;20351;-79
2021/10/26 11:58:55;;;;;;;;;;;13.70;99.90;;;;;;4960251;29;20307;-80
2021/10/26 12:01:23;;;;;;;;;;;13.90;99.90;;;;;;4959861;29;19937;-79
2021/10/26 12:03:50;;;;;;;;;;;13.90;99.90;;;;;;4959964;28;19926;-79
2021/10/26 12:06:28;;;;;;;;;;;13.90;99.90;;;;;;4959858;29;20027;-79
2021/10/26 12:08:56;;;;;;;;;;;14.00;99.90;;;;;;4959971;29;20316;-78
2021/10/26 12:11:28;;;;;;;;;;;14.00;99.90;;;;;;4959748;29;19937;-80
2021/10/26 12:14:10;;;;;;;;;;;14.00;99.90;;;;;;4959945;28;19936;-79
2021/10/26 12:16:37;;;;;;;;;;;14.00;99.90;;;;;;4960045;29;20002;-78
2021/10/26 12:19:04;;;;;;;;;;;14.10;99.90;;;;;;4959579;29;19927;-77
2021/10/26 12:21:30;;;;;;;;;;;14.10;99.90;;;;;;4959632;29;19936;-78
2021/10/26 12:23:58;;;;;;;;;;;14.20;99.90;;;;;;4959791;29;19937;-79
2021/10/26 12:26:26;;;;;;;;;;;14.20;99.90;;;;;;4959591;29;20324;-79
2021/10/26 12:28:57;;;;;;;;;;;14.30;99.90;;;;;;4959881;29;19926;-78
2021/10/26 12:31:25;;;;;;;;;;;14.20;99.90;;;;;;4959756;29;19926;-80
2021/10/26 12:34:00;;;;;;;;;;;14.20;99.90;;;;;;4959153;29;20344;-77
2021/10/26 12:36:28;;;;;;;;;;;14.30;99.90;;;;;;4959258;28;19935;-77
2021/10/26 12:39:00;;;;;;;;;;;14.30;99.90;;;;;;4959469;29;20004;-78
2021/10/26 12:41:28;;;;;;;;;;;14.30;99.90;;;;;;4959411;28;19934;-77
2021/10/26 12:44:01;;;;;;;;;;;14.30;99.90;;;;;;4958275;28;19973;-79
2021/10/26 12:46:28;;;;;;;;;;;14.20;99.90;;;;;;4959177;29;19981;-77
2021/10/26 12:49:04;;;;;;;;;;;14.20;99.90;;;;;;4959366;29;19927;-77
2021/10/26 12:51:30;;;;;;;;;;;14.20;99.90;;;;;;4959226;29;19930;-78
2021/10/26 12:53:57;;;;;;;;;;;14.20;99.90;;;;;;4959253;29;19937;-78
2021/10/26 12:56:25;;;;;;;;;;;14.20;99.90;;;;;;4958906;29;19980;-78
2021/10/26 12:58:52;;;;;;;;;;;14.20;99.90;;;;;;4958910;28;20263;-77
2021/10/26 13:01:30;;;;;;;;;;;14.20;99.90;;;;;;4958923;29;20026;-78
2021/10/26 13:04:04;;;;;;;;;;;14.20;99.90;;;;;;4958983;28;19926;-78
2021/10/26 13:06:34;;;;;;;;;;;14.30;99.90;;;;;;4958985;29;19930;-79
2021/10/26 13:09:01;;;;;;;;;;;14.20;99.90;;;;;;4958991;28;19981;-76
2021/10/26 13:11:28;;;;;;;;;;;14.20;99.90;;;;;;4958794;29;19930;-76
2021/10/26 13:14:05;;;;;;;;;;;14.20;99.90;;;;;;4958833;28;19926;-79
2021/10/26 13:16:34;;;;;;;;;;;14.20;99.90;;;;;;4958598;29;20423;-77
2021/10/26 13:19:11;;;;;;;;;;;14.20;99.90;;;;;;4958599;29;20033;-77
2021/10/26 13:21:38;;;;;;;;;;;14.20;99.90;;;;;;4958687;29;19943;-79
2021/10/26 13:24:05;;;;;;;;;;;14.20;99.90;;;;;;4958464;28;19975;-79
2021/10/26 13:26:33;;;;;;;;;;;14.20;99.90;;;;;;4958342;29;19934;-79
2021/10/26 13:29:00;;;;;;;;;;;14.20;99.90;;;;;;4958305;28;19933;-80
2021/10/26 13:31:27;;;;;;;;;;;14.20;99.90;;;;;;4958346;29;20251;-79
2021/10/26 13:33:56;;;;;;;;;;;14.20;99.90;;;;;;4958308;28;19974;-75
2021/10/26 13:36:25;;;;;;;;;;;14.30;99.90;;;;;;4958750;28;19927;-78
2021/10/26 13:38:52;;;;;;;;;;;14.30;99.90;;;;;;4959592;29;19927;-79
2021/10/26 13:41:19;;;;;;;;;;;14.30;99.90;;;;;;4958388;29;19938;-82
2021/10/26 13:43:46;;;;;;;;;;;14.40;99.90;;;;;;4958398;29;19937;-77
2021/10/26 13:46:15;;;;;;;;;;;14.50;99.90;;;;;;4957981;29;19930;-78
2021/10/26 13:48:42;;;;;;;;;;;14.50;99.90;;;;;;4958248;29;19966;-86
2021/10/26 13:51:11;;;;;;;;;;;14.40;99.90;;;;;;4958067;29;20294;-88
2021/10/26 13:53:38;;;;;;;;;;;14.50;99.90;;;;;;4958500;29;19930;-89
2021/10/26 13:56:05;;;;;;;;;;;14.50;99.90;;;;;;4958074;29;20303;-88
2021/10/26 13:58:32;;;;;;;;;;;14.50;99.90;;;;;;4960936;29;19926;-83
2021/10/26 14:01:04;;;;;;;;;;;14.50;99.90;;;;;;4963299;29;19926;-85
2021/10/26 14:03:31;;;;;;;;;;;14.50;99.90;;;;;;4958079;28;19935;-79
2021/10/26 14:05:58;;;;;;;;;;;14.60;99.90;;;;;;4957881;28;19930;-77
2021/10/26 14:08:26;;;;;;;;;;;14.60;99.90;;;;;;4957781;29;20009;-74
2021/10/26 14:10:53;;;;;;;;;;;14.60;99.90;;;;;;4957679;28;19927;-79
2021/10/26 14:13:20;;;;;;;;;;;14.60;99.90;;;;;;4957581;28;19930;-77
2021/10/26 14:15:47;;;;;;;;;;;14.60;99.90;;;;;;4957523;29;19989;-78
2021/10/26 14:18:14;;;;;;;;;;;14.60;99.90;;;;;;4957394;28;20039;-77
2021/10/26 14:20:42;;;;;;;;;;;14.70;99.90;;;;;;4956860;28;20379;-77
2021/10/26 14:23:09;;;;;;;;;;;14.60;99.90;;;;;;4957392;29;20021;-78
2021/10/26 14:25:38;;;;;;;;;;;14.70;99.90;;;;;;4957432;28;19937;-79
2021/10/26 14:28:05;;;;;;;;;;;14.70;99.90;;;;;;4957402;29;19945;-78
2021/10/26 14:30:32;;;;;;;;;;;14.80;99.90;;;;;;4957314;29;19927;-78
2021/10/26 14:32:58;;;;;;;;;;;14.80;99.90;;;;;;4957233;28;19985;-79
2021/10/26 14:35:27;;;;;;;;;;;14.80;99.90;;;;;;4957226;29;20266;-78
2021/10/26 14:37:58;;;;;;;;;;;14.80;99.90;;;;;;4957084;29;19927;-77
2021/10/26 14:40:37;;;;;;;;;;;14.80;99.90;;;;;;4957391;29;20271;-78
2021/10/26 14:54:18;;;;;;;;;;;14.60;99.90;;;;;;4917409;29;20122;-78